Ankang, China
Current Conditions -  °F | °C
As of 7:00 PM on Saturday 25 Oct 2014 (Local Time) from ZLXY Reporting Station
Haze Haze  
Wind Chill: 57°   Ceiling: Unl
Heat Index: 57°   Visibility: 3mi
Dew Point: 50°   Wind: 2mph
Humidity: 77%   Direction: NA
Pressure: 29.94"   Gusts: NA
Location:  32.68°N, 109.02°E
Report Text: ZLXY 251100Z VRB01MPS 5000 BR NSC 14/10 Q1014 NOSIG
Loading
Personal Weather Stations






























Interactive Weather Map
Tropical Storm Tracking
New forecast layout! Learn more

10-Day Weather Forecast

Advertisements
Track Severe Weather on mobile